deformed-offering

Nearby METAR Reports

 

KNUQ - Moffett Nas/Mtn, California, USA
Distance from station: N 9mi, 14km
Updated: Mon, 22-Oct-2018 3:56am PDT
Overcast
Overcast
 Wind from calm
Wind: Calm
Temperature: 55°F , 13°C
Dew Point: 52°F , 11°C
Humidity: 88%
Barometer: 29.97 inHg , 1014.9 hPa
Clouds: Overcast
Visibility: 10 miles , 16 km
Cloud details: Overcast 1200 ft
2018/10/22 10:56 KNUQ 221056Z 00000KT 10SM OVC012 13/11 A2997 RMK AO2 SLP150 T01330111
KSJC - San Jose, California, USA
Distance from station: NE 9mi, 14km
Updated: Mon, 22-Oct-2018 3:53am PDT
Overcast
Overcast
 Wind from NNW
Wind: NNW 5 mph , 7 km/h
Temperature: 57°F , 14°C
Dew Point: 52°F , 11°C
Humidity: 82%
Barometer: 29.96 inHg , 1014.6 hPa
Clouds: Overcast
Visibility: 9 miles , 14 km
Cloud details: Overcast 1100 ft
2018/10/22 10:53 KSJC 221053Z AUTO 33004KT 9SM OVC011 14/11 A2996 RMK AO2 SLP144 T01390111
 
KRHV - San Jose/Reid, California, USA
Distance from station: ENE 12mi, 19km
Updated: Sun, 21-Oct-2018 9:50pm PDT
NOT Current
Clear
Clear
 Wind from calm
Wind: Calm
Temperature: 57°F , 14°C
Dew Point: 54°F , 12°C
Humidity: 88%
Barometer: 29.94 inHg , 1013.9 hPa
Clouds: Clear
Visibility: 10 miles , 16 km
2018/10/22 04:50 KRHV 220450Z 00000KT 10SM SKC 14/12 A2994 RMK LAST
KPAO - Palo Alto, California, USA
Distance from station: NNW 14mi, 23km
Updated: Sun, 21-Oct-2018 8:47pm PDT
NOT Current
Clear
Clear
 Wind from WNW
Wind: WNW 6 mph , 9 km/h
Temperature: 55°F , 13°C
Dew Point: 50°F , 10°C
Humidity: 82%
Barometer: 29.95 inHg , 1014.2 hPa
Clouds: Clear
Visibility: 10 miles , 16 km
2018/10/22 03:47 KPAO 220347Z 30005KT 10SM SKC 13/10 A2995 RMK LAST
 
KSQL - San Carlos Airpo, California, USA
Distance from station: NW 21mi, 34km
Updated: Mon, 22-Oct-2018 4:00am PDT
Overcast
Overcast
 Wind from WNW
Wind: WNW 5 mph , 7 km/h
Temperature: 55°F , 13°C
Dew Point: 50°F , 10°C
Humidity: 82%
Barometer: 29.96 inHg , 1014.6 hPa
Clouds: Overcast
Visibility: 10 miles , 16 km
Cloud details: Overcast 1000 ft
2018/10/22 11:00 KSQL 221100Z AUTO 30004KT 10SM OVC010 13/10 A2996 RMK AO2
KE16 - San Martin, California, USA
Distance from station: ESE 27mi, 43km
Updated: Mon, 22-Oct-2018 3:55am PDT
Mist, Overcast
Mist, Overcast
 Wind from N
Wind: N 7 mph , 11 km/h
Temperature: 55°F , 13°C
Dew Point: 52°F , 11°C
Humidity: 88%
Barometer: 29.98 inHg , 1015.2 hPa
Summary: Mist
Clouds: Overcast
Visibility: 6 miles , 10 km
Cloud details: Overcast 700 ft
2018/10/22 10:55 KE16 221055Z AUTO 35006KT 6SM BR OVC007 13/11 A2998 RMK AO2
 
KWVI - Watsonville, California, USA
Distance from station: SSE 27mi, 44km
Updated: Mon, 22-Oct-2018 3:53am PDT
Mist, Overcast
Mist, Overcast
 Wind from calm
Wind: Calm
Temperature: 52°F , 11°C
Dew Point: 52°F , 11°C
Humidity: 100%
Barometer: 29.96 inHg , 1014.6 hPa
Summary: Mist
Clouds: Overcast
Visibility: 4 miles , 6 km
Cloud details: Overcast 500 ft
2018/10/22 10:53 KWVI 221053Z AUTO 00000KT 4SM BR OVC005 11/11 A2996 RMK AO2 SLP146 T01060106
KHWD - Hayward, California, USA
Distance from station: N 28mi, 44km
Updated: Mon, 22-Oct-2018 3:54am PDT
Overcast
Overcast
 Wind from NNW
Wind: NNW 5 mph , 7 km/h
Temperature: 57°F , 14°C
Dew Point: 52°F , 11°C
Humidity: 82%
Barometer: 29.96 inHg , 1014.6 hPa
Clouds: Overcast
Visibility: 10 miles , 16 km
Cloud details: Overcast 1200 ft
2018/10/22 10:54 KHWD 221054Z AUTO 34004KT 10SM OVC012 14/11 A2996 RMK AO2 SLP153 T01390106
 
KSFO - San Francisco, California, USA
Distance from station: NW 30mi, 49km
Updated: Mon, 22-Oct-2018 3:56am PDT
Mostly Cloudy
Mostly Cloudy
 Wind from WSW
Wind: WSW 9 mph , 15 km/h
Temperature: 55°F , 13°C
Dew Point: 48°F , 9°C
Humidity: 77%
Barometer: 29.95 inHg , 1014.2 hPa
Clouds: Mostly Cloudy
Visibility: 10 miles , 16 km
Cloud details: Few Clouds 800 ft
Mostly Cloudy 1200 ft
2018/10/22 10:56 KSFO 221056Z 25008KT 10SM FEW008 BKN012 13/09 A2995 RMK AO2 SLP143 T01280094
KHAF - Half Moon Bay, California, USA
Distance from station: WNW 31mi, 50km
Updated: Wed, 03-Oct-2018 1:40pm PDT
NOT Current
Haze, Mostly cloudy
Haze, Mostly cloudy
 Wind from S
Wind: S 5 mph , 7 km/h
Temperature: 64°F , 18°C
Dew Point: 59°F , 15°C
Humidity: 83%
Barometer: 29.92 inHg , 1013.2 hPa
Summary: Haze
Clouds: Mostly Cloudy
Visibility: 4 miles , 6 km
Cloud details: Few Clouds 2100 ft
Mostly Cloudy 3000 ft
2018/10/03 20:40 KHAF 032040Z AUTO 19004KT 4SM HZ FEW021 BKN030 18/15 A2992 RMK AO2
 
KOAK - Oakland, California, USA
Distance from station: NNW 31mi, 50km
Updated: Mon, 22-Oct-2018 3:53am PDT
Mostly Cloudy
Mostly Cloudy
 Wind from NW
Wind: NW 6 mph , 9 km/h
Temperature: 55°F , 13°C
Dew Point: 52°F , 11°C
Humidity: 88%
Barometer: 29.97 inHg , 1014.9 hPa
Clouds: Mostly Cloudy
Visibility: 10 miles , 16 km
Cloud details: Few Clouds 800 ft
Mostly Cloudy 1200 ft
2018/10/22 10:53 KOAK 221053Z 32005KT 10SM FEW008 BKN012 13/11 A2997 RMK AO2 SLP148 T01330111
KLVK - Livermore, California, USA
Distance from station: NNE 31mi, 51km
Updated: Mon, 22-Oct-2018 3:53am PDT
Mist, Overcast
Mist, Overcast
 Wind from calm
Wind: Calm
Temperature: 54°F , 12°C
Dew Point: 50°F , 10°C
Humidity: 88%
Barometer: 29.94 inHg , 1013.9 hPa
Summary: Mist
Clouds: Overcast
Visibility: 5 miles , 8 km
Cloud details: Overcast 700 ft
2018/10/22 10:53 KLVK 221053Z AUTO 00000KT 5SM BR OVC007 12/10 A2994 RMK AO2 SLP138 T01170100
 
KCVH - Hollister Muni, California, USA
Distance from station: SE 42mi, 68km
Updated: Mon, 22-Oct-2018 3:55am PDT
Partly Cloudy
Partly Cloudy
 Wind from calm
Wind: Calm
Temperature: 45°F , 7°C
Dew Point: 41°F , 5°C
Humidity: 87%
Barometer: 29.96 inHg , 1014.6 hPa
Clouds: Partly Cloudy
Visibility: 10 miles , 16 km
Cloud details: Partly Cloudy 800 ft
2018/10/22 10:55 KCVH 221055Z AUTO 00000KT 10SM SCT008 07/05 A2996 RMK A01
KSNS - Salinas, California, USA
Distance from station: SSE 48mi, 77km
Updated: Mon, 22-Oct-2018 3:53am PDT
Mist, Overcast
Mist, Overcast
 Wind from calm
Wind: Calm
Temperature: 54°F , 12°C
Dew Point: 52°F , 11°C
Humidity: 94%
Barometer: 29.96 inHg , 1014.6 hPa
Summary: Mist
Clouds: Overcast
Visibility: 5 miles , 8 km
Cloud details: Overcast 700 ft
2018/10/22 10:53 KSNS 221053Z AUTO 00000KT 5SM BR OVC007 12/11 A2996 RMK AO2 SLP152 T01170106
 
KMRY - Monterey, California, USA
Distance from station: SSE 49mi, 78km
Updated: Mon, 22-Oct-2018 3:54am PDT
Overcast
Overcast
 Wind from SW
Wind: SW 6 mph , 9 km/h
Temperature: 57°F , 14°C
Dew Point: 50°F , 10°C
Humidity: 77%
Barometer: 29.96 inHg , 1014.6 hPa
Clouds: Overcast
Visibility: 10 miles , 16 km
Cloud details: Overcast 900 ft
2018/10/22 10:54 KMRY 221054Z AUTO 23005KT 10SM OVC009 14/10 A2996 RMK AO2 SLP157 T01390100
KCCR - Concord, California, USA
Distance from station: N 50mi, 81km
Updated: Mon, 22-Oct-2018 3:53am PDT
Clear
Clear
 Wind from SW
Wind: SW 5 mph , 7 km/h
Temperature: 54°F , 12°C
Dew Point: 46°F , 8°C
Humidity: 77%
Barometer: 29.95 inHg , 1014.2 hPa
Clouds: Clear
Visibility: 10 miles , 16 km
2018/10/22 10:53 KCCR 221053Z 22004KT 10SM CLR 12/08 A2995 RMK AO2 SLP126 T01170083
deformed-offering